Time;durP1;ratioP1;P1;durP2;ratioP2;P2;SDS_P1;SDS_P2;PMS_P1;PMS_P2;Temp;Humidity;BMP_temperature;BMP_pressure;BME280_temperature;BME280_humidity;BME280_pressure;Samples;Min_cycle;Max_cycle;Signal;HPM_P1;HPM_P2
2023/11/12 00:00:03;;;;;;;0.70;0.70;;;17.40;67.80;;;;;;5020631;28;20577;-79
2023/11/12 00:02:28;;;;;;;0.60;0.60;;;17.40;67.80;;;;;;5039961;28;20075;-79
2023/11/12 00:04:54;;;;;;;0.55;0.55;;;17.30;67.70;;;;;;5035292;28;20519;-79
2023/11/12 00:07:20;;;;;;;0.40;0.40;;;17.40;67.70;;;;;;5040848;28;20888;-79
2023/11/12 00:09:45;;;;;;;0.90;0.60;;;17.40;67.90;;;;;;5023673;28;20048;-82
2023/11/12 00:12:11;;;;;;;0.60;0.60;;;17.40;67.80;;;;;;5037942;28;20037;-82
2023/11/12 00:14:40;;;;;;;0.65;0.60;;;17.30;67.80;;;;;;5034913;28;20450;-82
2023/11/12 00:17:06;;;;;;;0.60;0.60;;;17.40;67.80;;;;;;5040639;28;20124;-82
2023/11/12 00:19:32;;;;;;;0.50;0.50;;;17.30;67.80;;;;;;5058474;28;20128;-82
2023/11/12 00:21:58;;;;;;;0.55;0.55;;;17.30;67.90;;;;;;5027422;28;20045;-82
2023/11/12 00:24:24;;;;;;;0.40;0.38;;;17.30;67.80;;;;;;5026631;28;20057;-82
2023/11/12 00:26:49;;;;;;;0.40;0.40;;;17.30;68.00;;;;;;5041554;28;20111;-82
2023/11/12 00:29:15;;;;;;;0.60;0.60;;;17.30;68.20;;;;;;5041910;28;20045;-82
2023/11/12 00:31:40;;;;;;;0.40;0.40;;;17.30;68.20;;;;;;5024574;28;20045;-82
2023/11/12 00:34:06;;;;;;;0.45;0.45;;;17.30;68.00;;;;;;5041816;28;20596;-82
2023/11/12 00:36:32;;;;;;;0.50;0.50;;;17.30;68.00;;;;;;5041121;28;20430;-82
2023/11/12 00:38:57;;;;;;;0.93;0.60;;;17.30;68.00;;;;;;5042292;28;20063;-83
2023/11/12 00:41:23;;;;;;;0.40;0.40;;;17.30;68.00;;;;;;5042597;28;20518;-82
2023/11/12 00:43:48;;;;;;;0.50;0.50;;;17.30;68.00;;;;;;5042463;28;20198;-82
2023/11/12 00:46:14;;;;;;;0.73;0.73;;;17.30;68.00;;;;;;5040680;28;20445;-82
2023/11/12 00:48:40;;;;;;;0.38;0.38;;;17.30;68.10;;;;;;5009032;28;20506;-82
2023/11/12 00:51:05;;;;;;;0.47;0.47;;;17.30;68.20;;;;;;5040302;28;20033;-83
2023/11/12 00:53:31;;;;;;;0.68;0.50;;;17.30;68.30;;;;;;5039846;28;20071;-82
2023/11/12 00:56:00;;;;;;;0.40;0.40;;;17.30;68.20;;;;;;5042802;28;20270;-82
2023/11/12 00:58:27;;;;;;;0.60;0.40;;;17.30;68.20;;;;;;5043863;28;20111;-82
2023/11/12 01:00:52;;;;;;;0.40;0.40;;;17.20;68.20;;;;;;5009535;28;20128;-82
2023/11/12 01:03:18;;;;;;;0.30;0.28;;;17.20;68.30;;;;;;5036225;28;20491;-82
2023/11/12 01:05:44;;;;;;;0.52;0.52;;;17.30;68.40;;;;;;5042838;28;20068;-82
2023/11/12 01:08:09;;;;;;;0.40;0.40;;;17.30;68.30;;;;;;5040873;28;20084;-83
2023/11/12 01:10:35;;;;;;;0.47;0.45;;;17.20;68.30;;;;;;5041736;28;20435;-83
2023/11/12 01:13:00;;;;;;;0.50;0.40;;;17.20;68.30;;;;;;5041845;28;20477;-83
2023/11/12 01:15:28;;;;;;;0.50;0.30;;;17.20;68.40;;;;;;5039661;28;20049;-83
2023/11/12 01:17:53;;;;;;;0.30;0.30;;;17.20;68.50;;;;;;5041749;28;20049;-83
2023/11/12 01:20:19;;;;;;;0.50;0.50;;;17.30;69.40;;;;;;5039855;28;20068;-82
2023/11/12 01:22:45;;;;;;;0.50;0.50;;;17.20;68.50;;;;;;5025076;28;20103;-83
2023/11/12 01:25:12;;;;;;;0.38;0.30;;;17.20;69.30;;;;;;5043363;28;20582;-82
2023/11/12 01:27:38;;;;;;;0.50;0.50;;;17.20;68.50;;;;;;5038483;28;20183;-82
2023/11/12 01:30:04;;;;;;;0.30;0.30;;;17.20;68.60;;;;;;5037446;28;20120;-82
2023/11/12 01:32:29;;;;;;;0.47;0.40;;;17.20;68.60;;;;;;5040944;28;20044;-83
2023/11/12 01:34:55;;;;;;;0.68;0.40;;;17.20;68.70;;;;;;5040287;28;20434;-82
2023/11/12 01:37:21;;;;;;;0.40;0.40;;;17.20;68.60;;;;;;5042002;28;20141;-82
2023/11/12 01:39:47;;;;;;;0.70;0.45;;;17.20;68.70;;;;;;5024491;28;20033;-82
2023/11/12 01:42:13;;;;;;;0.40;0.40;;;17.20;68.60;;;;;;5025790;28;20257;-82
2023/11/12 01:44:39;;;;;;;0.65;0.65;;;17.20;68.80;;;;;;5054014;28;20045;-81
2023/11/12 01:47:05;;;;;;;0.45;0.43;;;17.20;68.70;;;;;;5039285;28;20041;-82
2023/11/12 01:49:32;;;;;;;0.45;0.45;;;17.20;68.70;;;;;;5064485;28;21159;-82
2023/11/12 01:51:57;;;;;;;0.40;0.40;;;17.20;68.70;;;;;;5022979;28;20061;-82
2023/11/12 01:54:24;;;;;;;0.50;0.50;;;17.20;68.70;;;;;;5038445;28;20048;-82
2023/11/12 01:56:55;;;;;;;0.40;0.40;;;17.20;68.70;;;;;;5051463;28;20120;-83
2023/11/12 01:59:23;;;;;;;0.50;0.50;;;17.20;69.00;;;;;;5000259;28;20412;-82
2023/11/12 02:01:51;;;;;;;0.35;0.35;;;17.20;68.90;;;;;;5029135;28;20069;-82
2023/11/12 02:04:17;;;;;;;0.50;0.50;;;17.10;68.80;;;;;;5026816;28;20098;-82
2023/11/12 02:06:43;;;;;;;0.40;0.40;;;17.10;68.80;;;;;;5041641;28;20044;-81
2023/11/12 02:09:09;;;;;;;0.40;0.40;;;17.10;68.80;;;;;;5039126;28;20514;-82
2023/11/12 02:11:36;;;;;;;0.40;0.40;;;17.20;69.10;;;;;;5022218;28;20041;-82
2023/11/12 02:14:02;;;;;;;0.40;0.40;;;17.10;68.80;;;;;;5037345;28;20127;-82
2023/11/12 02:16:27;;;;;;;0.40;0.40;;;17.10;69.60;;;;;;5038110;28;20080;-82
2023/11/12 02:18:54;;;;;;;0.40;0.40;;;17.10;68.90;;;;;;5042244;28;20623;-82
2023/11/12 02:21:24;;;;;;;0.20;0.20;;;17.10;68.90;;;;;;5039137;28;20033;-82
2023/11/12 02:23:49;;;;;;;0.30;0.30;;;17.10;69.80;;;;;;5025646;28;20049;-81
2023/11/12 02:26:15;;;;;;;0.60;0.50;;;17.10;68.90;;;;;;5043526;28;20044;-82
2023/11/12 02:28:41;;;;;;;0.38;0.38;;;17.10;68.80;;;;;;5042116;28;20037;-81
2023/11/12 02:31:06;;;;;;;0.30;0.30;;;17.10;68.90;;;;;;5062877;28;20506;-82
2023/11/12 02:33:32;;;;;;;0.32;0.32;;;17.10;68.90;;;;;;5039091;28;20431;-82
2023/11/12 02:35:58;;;;;;;0.20;0.20;;;17.10;69.10;;;;;;5042859;28;20044;-82
2023/11/12 02:38:23;;;;;;;0.38;0.38;;;17.10;69.00;;;;;;5043782;28;20047;-81
2023/11/12 02:40:50;;;;;;;0.30;0.30;;;17.10;69.10;;;;;;5041951;28;20050;-81
2023/11/12 02:43:16;;;;;;;0.65;0.50;;;17.10;69.00;;;;;;5044635;28;20067;-82
2023/11/12 02:45:42;;;;;;;0.30;0.30;;;17.10;69.00;;;;;;5044416;28;20040;-81
2023/11/12 02:48:07;;;;;;;0.57;0.40;;;17.10;69.10;;;;;;5041969;28;20059;-81
2023/11/12 02:50:34;;;;;;;0.65;0.30;;;17.10;69.10;;;;;;5043638;28;20067;-80
2023/11/12 02:53:00;;;;;;;0.40;0.40;;;17.10;69.10;;;;;;5043956;28;20049;-80
2023/11/12 02:55:29;;;;;;;0.20;0.20;;;17.10;69.10;;;;;;5041945;28;20037;-81
2023/11/12 02:57:55;;;;;;;0.50;0.50;;;17.10;69.20;;;;;;5045187;28;20040;-80
2023/11/12 03:00:21;;;;;;;0.75;0.40;;;17.10;69.20;;;;;;5040495;28;20048;-80
2023/11/12 03:02:47;;;;;;;0.38;0.30;;;17.10;69.10;;;;;;5041634;28;20086;-80
2023/11/12 03:05:13;;;;;;;0.40;0.40;;;17.10;69.20;;;;;;5046059;28;20036;-80
2023/11/12 03:07:39;;;;;;;0.60;0.35;;;17.10;69.20;;;;;;5041153;28;20041;-80
2023/11/12 03:10:08;;;;;;;0.40;0.40;;;17.10;69.20;;;;;;5046340;28;20103;-81
2023/11/12 03:12:36;;;;;;;0.70;0.40;;;17.10;69.20;;;;;;5059489;28;20128;-81
2023/11/12 03:15:04;;;;;;;0.75;0.30;;;17.00;69.10;;;;;;5043429;28;20040;-81
2023/11/12 03:17:30;;;;;;;0.40;0.40;;;17.00;69.20;;;;;;5041324;28;20120;-81
2023/11/12 03:19:57;;;;;;;0.40;0.40;;;17.00;69.20;;;;;;5044144;28;20037;-82
2023/11/12 03:22:22;;;;;;;0.70;0.40;;;17.00;69.20;;;;;;5045644;28;20572;-81
2023/11/12 03:24:48;;;;;;;0.50;0.40;;;17.00;69.20;;;;;;5037903;28;20385;-81
2023/11/12 03:27:14;;;;;;;0.30;0.30;;;17.00;69.30;;;;;;5054983;28;20388;-82
2023/11/12 03:29:39;;;;;;;0.30;0.30;;;17.00;69.30;;;;;;5058112;28;20128;-82
2023/11/12 03:32:05;;;;;;;0.47;0.40;;;17.00;69.20;;;;;;5042450;28;20053;-80
2023/11/12 03:34:31;;;;;;;1.00;0.60;;;17.00;69.20;;;;;;5039891;28;20443;-80
2023/11/12 03:36:57;;;;;;;1.25;0.57;;;17.00;69.20;;;;;;5046045;28;20074;-80
2023/11/12 03:39:22;;;;;;;0.55;0.50;;;17.00;69.30;;;;;;5042604;28;20045;-80
2023/11/12 03:41:48;;;;;;;1.05;0.60;;;17.00;69.40;;;;;;5043947;28;20041;-80
2023/11/12 03:44:14;;;;;;;1.38;0.40;;;17.00;69.40;;;;;;5044224;28;20116;-80
2023/11/12 03:46:40;;;;;;;0.63;0.40;;;17.00;69.40;;;;;;5067622;28;20045;-81
2023/11/12 03:49:06;;;;;;;0.85;0.40;;;17.00;69.40;;;;;;5044445;28;20025;-81
2023/11/12 03:51:32;;;;;;;0.50;0.50;;;17.00;69.50;;;;;;5043132;28;20082;-82
2023/11/12 03:54:01;;;;;;;0.47;0.40;;;17.00;69.30;;;;;;5047385;28;20033;-81
2023/11/12 03:56:27;;;;;;;0.52;0.38;;;17.00;69.40;;;;;;5044321;28;20415;-81
2023/11/12 03:58:54;;;;;;;0.63;0.57;;;17.00;69.50;;;;;;5062198;28;20550;-80
2023/11/12 04:01:20;;;;;;;0.50;0.40;;;17.00;69.50;;;;;;5078703;28;20040;-81
2023/11/12 04:03:45;;;;;;;2.17;0.73;;;17.00;69.50;;;;;;5050414;28;20116;-80
2023/11/12 04:06:11;;;;;;;1.02;0.57;;;17.00;69.40;;;;;;5047077;28;20044;-80
2023/11/12 04:08:36;;;;;;;0.85;0.50;;;17.00;69.50;;;;;;5042694;28;20551;-81
2023/11/12 04:11:02;;;;;;;0.47;0.35;;;17.00;69.50;;;;;;5046525;28;20066;-81
2023/11/12 04:13:28;;;;;;;0.88;0.40;;;16.90;69.50;;;;;;5046442;28;20487;-81
2023/11/12 04:15:53;;;;;;;0.85;0.50;;;17.00;69.50;;;;;;5046533;28;20049;-81
2023/11/12 04:18:19;;;;;;;0.77;0.57;;;17.00;69.60;;;;;;5045729;28;20049;-81
2023/11/12 04:20:44;;;;;;;0.82;0.50;;;16.90;69.60;;;;;;5046272;28;20041;-81
2023/11/12 04:23:10;;;;;;;0.63;0.60;;;17.00;69.70;;;;;;5044619;28;20033;-80
2023/11/12 04:25:36;;;;;;;0.50;0.32;;;17.00;69.50;;;;;;5046201;28;20069;-82
2023/11/12 04:28:01;;;;;;;0.60;0.55;;;17.00;69.60;;;;;;5048725;28;20448;-81
2023/11/12 04:30:27;;;;;;;0.80;0.38;;;17.00;69.70;;;;;;5047360;28;20037;-81
2023/11/12 04:32:52;;;;;;;0.60;0.60;;;17.00;69.60;;;;;;5042438;28;20507;-80
2023/11/12 04:35:19;;;;;;;0.90;0.43;;;17.00;69.70;;;;;;5044366;28;20455;-81
2023/11/12 04:37:45;;;;;;;0.50;0.50;;;17.00;69.70;;;;;;5045593;28;20113;-81
2023/11/12 04:40:16;;;;;;;0.50;0.30;;;16.90;69.60;;;;;;5049266;28;20052;-81
2023/11/12 04:42:42;;;;;;;0.80;0.60;;;17.00;69.60;;;;;;5048678;28;20067;-81
2023/11/12 04:45:08;;;;;;;0.85;0.47;;;17.00;70.50;;;;;;5043053;28;20464;-81
2023/11/12 04:47:33;;;;;;;0.35;0.22;;;17.00;69.60;;;;;;5046438;28;20132;-81
2023/11/12 04:49:59;;;;;;;0.82;0.50;;;17.00;69.50;;;;;;5045390;28;20059;-80
2023/11/12 04:52:25;;;;;;;0.47;0.47;;;16.90;69.50;;;;;;5046016;28;20453;-81
2023/11/12 04:54:50;;;;;;;0.73;0.50;;;16.90;69.60;;;;;;5042724;28;20056;-81
2023/11/12 04:57:17;;;;;;;0.40;0.30;;;16.90;69.60;;;;;;5043433;28;20151;-81
2023/11/12 04:59:42;;;;;;;0.52;0.40;;;16.90;69.70;;;;;;5047075;28;20040;-81
2023/11/12 05:02:10;;;;;;;0.90;0.50;;;16.90;69.70;;;;;;5044795;28;20036;-81
2023/11/12 05:04:36;;;;;;;0.50;0.40;;;16.90;69.70;;;;;;5044663;28;20033;-82
2023/11/12 05:07:02;;;;;;;0.55;0.45;;;16.90;69.80;;;;;;5047864;28;20114;-81
2023/11/12 05:09:28;;;;;;;0.60;0.50;;;16.90;69.60;;;;;;5042665;28;20044;-81
2023/11/12 05:11:53;;;;;;;0.70;0.40;;;16.90;69.80;;;;;;5046056;28;20037;-81
2023/11/12 05:14:19;;;;;;;0.85;0.60;;;16.90;69.80;;;;;;5044037;28;20162;-82
2023/11/12 05:16:46;;;;;;;0.65;0.30;;;16.90;69.80;;;;;;5045803;28;20499;-81
2023/11/12 05:19:12;;;;;;;1.00;0.50;;;16.90;69.80;;;;;;5046728;28;20052;-81
2023/11/12 05:21:44;;;;;;;0.55;0.43;;;16.90;69.70;;;;;;5046748;28;20036;-81
2023/11/12 05:24:10;;;;;;;1.05;0.73;;;16.90;69.80;;;;;;5047769;28;20595;-81
2023/11/12 05:26:36;;;;;;;0.50;0.40;;;16.90;69.90;;;;;;5048302;28;20440;-81
2023/11/12 05:29:03;;;;;;;0.80;0.50;;;16.90;69.80;;;;;;5044302;28;20039;-81
2023/11/12 05:31:32;;;;;;;0.50;0.50;;;16.90;69.80;;;;;;5047162;28;20039;-82
2023/11/12 05:33:58;;;;;;;1.10;0.65;;;16.90;69.80;;;;;;5043226;28;20053;-82
2023/11/12 05:36:24;;;;;;;0.93;0.40;;;16.90;69.90;;;;;;5047287;28;20059;-82
2023/11/12 05:38:49;;;;;;;0.50;0.40;;;16.90;69.90;;;;;;5061849;28;20894;-82
2023/11/12 05:41:15;;;;;;;0.50;0.38;;;16.90;69.90;;;;;;5048713;28;20520;-81
2023/11/12 05:43:40;;;;;;;0.40;0.38;;;16.90;70.00;;;;;;5048087;28;20037;-80
2023/11/12 05:46:06;;;;;;;0.45;0.30;;;16.90;69.80;;;;;;5047259;28;20041;-81
2023/11/12 05:48:31;;;;;;;0.70;0.50;;;16.90;69.90;;;;;;5044825;28;20123;-81
2023/11/12 05:50:59;;;;;;;0.73;0.50;;;16.90;70.00;;;;;;5042576;28;20097;-81
2023/11/12 05:53:25;;;;;;;0.63;0.45;;;16.90;70.00;;;;;;5044667;28;20502;-81
2023/11/12 05:55:51;;;;;;;0.82;0.50;;;16.90;70.00;;;;;;5045762;28;20101;-81
2023/11/12 05:58:16;;;;;;;0.93;0.60;;;16.90;69.90;;;;;;5047818;28;20048;-81
2023/11/12 06:00:42;;;;;;;1.33;0.40;;;16.90;69.90;;;;;;5029047;28;20506;-82
2023/11/12 06:03:07;;;;;;;0.70;0.50;;;16.90;70.00;;;;;;5043285;28;20495;-81
2023/11/12 06:05:33;;;;;;;0.60;0.50;;;16.90;70.00;;;;;;5041732;28;20426;-81
2023/11/12 06:07:58;;;;;;;0.93;0.70;;;16.90;70.00;;;;;;5044674;28;20095;-80
2023/11/12 06:10:24;;;;;;;0.63;0.43;;;16.90;70.00;;;;;;5046851;28;20048;-82
2023/11/12 06:12:49;;;;;;;1.52;0.47;;;16.90;70.10;;;;;;5044609;28;20041;-82
2023/11/12 06:15:15;;;;;;;1.33;0.60;;;16.90;70.00;;;;;;5041957;28;20160;-84
2023/11/12 06:17:41;;;;;;;0.45;0.40;;;16.90;70.10;;;;;;5045037;28;20454;-83
2023/11/12 06:20:07;;;;;;;0.43;0.40;;;16.80;69.90;;;;;;5046136;28;20044;-83
2023/11/12 06:22:32;;;;;;;0.90;0.50;;;16.90;70.00;;;;;;5043497;28;20523;-82
2023/11/12 06:24:58;;;;;;;0.40;0.30;;;16.90;70.00;;;;;;5042941;28;20048;-81
2023/11/12 06:27:23;;;;;;;1.50;0.90;;;16.90;70.00;;;;;;5046365;28;20037;-82
2023/11/12 06:29:50;;;;;;;0.57;0.57;;;16.80;70.00;;;;;;5045409;28;20033;-81
2023/11/12 06:32:16;;;;;;;2.13;0.40;;;16.90;70.10;;;;;;5043790;28;20126;-82
2023/11/12 06:34:41;;;;;;;1.00;0.50;;;16.90;70.10;;;;;;5044663;28;20435;-82
2023/11/12 06:37:07;;;;;;;1.05;0.70;;;16.80;70.10;;;;;;5044957;28;20037;-81
2023/11/12 06:39:33;;;;;;;0.70;0.40;;;16.90;70.10;;;;;;5042086;28;20047;-81
2023/11/12 06:41:58;;;;;;;3.10;0.47;;;16.80;70.20;;;;;;5042425;28;20050;-82
2023/11/12 06:44:24;;;;;;;0.65;0.50;;;16.80;70.10;;;;;;5042271;28;20079;-82
2023/11/12 06:46:50;;;;;;;0.73;0.60;;;16.80;70.10;;;;;;5044683;28;20491;-83
2023/11/12 06:49:15;;;;;;;0.80;0.40;;;16.80;70.30;;;;;;5043475;28;20588;-83
2023/11/12 06:51:41;;;;;;;1.42;0.88;;;16.80;70.20;;;;;;5046128;28;20128;-83
2023/11/12 06:54:08;;;;;;;3.50;0.52;;;16.80;70.10;;;;;;5044082;28;20045;-82
2023/11/12 06:56:34;;;;;;;1.38;0.50;;;16.90;70.20;;;;;;5042695;28;20065;-82
2023/11/12 06:59:02;;;;;;;0.45;0.40;;;16.80;70.20;;;;;;5043051;28;20574;-81
2023/11/12 07:01:27;;;;;;;1.95;0.65;;;16.80;70.30;;;;;;5048926;28;20045;-81
2023/11/12 07:03:53;;;;;;;0.47;0.47;;;16.90;70.20;;;;;;5048900;28;20048;-81
2023/11/12 07:06:19;;;;;;;0.80;0.63;;;16.80;70.20;;;;;;5041548;28;20103;-81
2023/11/12 07:08:45;;;;;;;0.40;0.40;;;16.80;70.10;;;;;;5043123;28;20037;-81
2023/11/12 07:11:11;;;;;;;1.20;0.70;;;16.80;70.30;;;;;;5043225;28;20199;-82
2023/11/12 07:13:36;;;;;;;1.42;0.93;;;16.80;70.30;;;;;;5046121;28;20143;-82
2023/11/12 07:16:04;;;;;;;0.75;0.50;;;16.80;70.30;;;;;;5042559;28;20056;-82
2023/11/12 07:18:29;;;;;;;1.48;0.85;;;16.80;70.40;;;;;;5045690;28;20048;-83
2023/11/12 07:20:55;;;;;;;0.82;0.70;;;16.80;70.40;;;;;;5042983;28;20041;-84
2023/11/12 07:23:21;;;;;;;0.85;0.50;;;16.80;70.40;;;;;;5040618;28;20117;-82
2023/11/12 07:25:46;;;;;;;0.90;0.45;;;16.80;70.30;;;;;;5072956;28;20142;-82
2023/11/12 07:28:12;;;;;;;0.75;0.55;;;16.80;71.10;;;;;;5043717;28;20186;-83
2023/11/12 07:30:38;;;;;;;0.73;0.50;;;16.80;70.30;;;;;;5043769;28;20052;-87
2023/11/12 07:33:05;;;;;;;0.95;0.65;;;16.80;70.40;;;;;;4689676;28;9999762;-82
2023/11/12 07:35:32;;;;;;;1.63;0.60;;;16.80;70.30;;;;;;5040217;28;20056;-81
2023/11/12 07:38:00;;;;;;;3.30;0.73;;;16.90;70.20;;;;;;5007270;28;20064;-83
2023/11/12 07:40:26;;;;;;;5.93;1.08;;;16.90;70.20;;;;;;5039469;28;20053;-83
2023/11/12 07:42:53;;;;;;;2.58;0.70;;;16.90;70.20;;;;;;5040445;28;20025;-83
2023/11/12 07:45:19;;;;;;;1.60;0.90;;;16.90;70.20;;;;;;5038534;28;20510;-82
2023/11/12 07:47:45;;;;;;;3.97;1.05;;;16.90;70.40;;;;;;5040495;28;20044;-83
2023/11/12 07:50:11;;;;;;;1.15;0.75;;;16.90;70.50;;;;;;5036610;28;20059;-82
2023/11/12 07:52:37;;;;;;;2.03;0.90;;;16.80;70.50;;;;;;5039752;28;20261;-82
2023/11/12 07:55:05;;;;;;;1.10;0.70;;;16.80;70.50;;;;;;5032809;28;20041;-82
2023/11/12 07:57:33;;;;;;;0.90;0.43;;;16.90;70.40;;;;;;5017224;28;20040;-82
2023/11/12 08:00:00;;;;;;;1.90;0.90;;;16.80;70.40;;;;;;5040131;28;20033;-82
2023/11/12 08:02:26;;;;;;;1.15;0.60;;;16.80;70.40;;;;;;5035741;28;20048;-82
2023/11/12 08:04:52;;;;;;;0.95;0.82;;;16.80;70.40;;;;;;5038692;28;20084;-82
2023/11/12 08:07:17;;;;;;;0.90;0.63;;;16.90;70.30;;;;;;5040053;28;20394;-83
2023/11/12 08:09:46;;;;;;;2.20;0.60;;;16.90;70.30;;;;;;5038268;28;20556;-82
2023/11/12 08:12:13;;;;;;;1.20;0.73;;;16.80;70.30;;;;;;5039477;28;20132;-81
2023/11/12 08:14:39;;;;;;;2.28;0.80;;;16.90;70.40;;;;;;5014317;28;20053;-82
2023/11/12 08:17:05;;;;;;;1.90;0.70;;;16.90;70.30;;;;;;5037327;28;20049;-82
2023/11/12 08:19:31;;;;;;;0.68;0.40;;;16.90;70.40;;;;;;5040713;28;20055;-82
2023/11/12 08:21:56;;;;;;;1.20;0.68;;;16.90;70.90;;;;;;5037934;28;20114;-82
2023/11/12 08:24:22;;;;;;;1.40;0.80;;;16.90;70.50;;;;;;5040359;28;20487;-82
2023/11/12 08:26:47;;;;;;;1.73;0.75;;;16.90;70.50;;;;;;5038849;28;20094;-82
2023/11/12 08:29:13;;;;;;;1.25;0.40;;;16.90;70.50;;;;;;5034831;28;20037;-82
2023/11/12 08:31:39;;;;;;;1.23;0.47;;;16.90;70.50;;;;;;5037276;28;20071;-82
2023/11/12 08:34:05;;;;;;;1.10;0.47;;;16.90;70.50;;;;;;5024037;28;20584;-82
2023/11/12 08:36:31;;;;;;;1.05;0.50;;;16.90;70.40;;;;;;5005865;28;20103;-83
2023/11/12 08:38:57;;;;;;;0.65;0.50;;;16.90;70.40;;;;;;5041363;28;20049;-83
2023/11/12 08:41:22;;;;;;;1.08;0.68;;;16.90;70.40;;;;;;5034114;28;20041;-81
2023/11/12 08:43:48;;;;;;;1.05;0.60;;;16.90;70.50;;;;;;5057946;28;20645;-83
2023/11/12 08:46:15;;;;;;;2.13;0.90;;;16.90;70.50;;;;;;5040355;28;20496;-82
2023/11/12 08:48:44;;;;;;;0.85;0.40;;;16.90;70.60;;;;;;5007581;28;20517;-81
2023/11/12 08:51:10;;;;;;;4.10;0.88;;;16.90;70.30;;;;;;5043432;28;20109;-83
2023/11/12 08:53:37;;;;;;;0.98;0.70;;;16.90;70.30;;;;;;5042877;28;20034;-83
2023/11/12 08:56:03;;;;;;;2.15;0.80;;;16.80;70.40;;;;;;5041001;28;20049;-82
2023/11/12 08:58:28;;;;;;;1.10;0.63;;;16.90;70.50;;;;;;5042488;28;20045;-82
2023/11/12 09:00:54;;;;;;;1.30;0.52;;;16.90;70.50;;;;;;5024213;28;20408;-82
2023/11/12 09:03:20;;;;;;;1.50;0.70;;;17.00;70.40;;;;;;5039050;28;20056;-82
2023/11/12 09:05:45;;;;;;;0.82;0.47;;;17.00;70.30;;;;;;5040376;28;20419;-83
2023/11/12 09:08:11;;;;;;;1.63;0.80;;;16.90;70.30;;;;;;5042933;28;20136;-82
2023/11/12 09:10:37;;;;;;;1.27;0.90;;;16.90;70.40;;;;;;5040077;28;20041;-83
2023/11/12 09:13:03;;;;;;;1.80;0.90;;;16.90;70.50;;;;;;5045732;28;20056;-83
2023/11/12 09:15:29;;;;;;;0.88;0.65;;;16.90;70.40;;;;;;5039705;28;20044;-82
2023/11/12 09:17:55;;;;;;;1.25;0.55;;;16.90;70.60;;;;;;5055205;28;20559;-83
2023/11/12 09:20:22;;;;;;;1.27;0.60;;;16.90;70.50;;;;;;5042462;28;20180;-83
2023/11/12 09:22:48;;;;;;;0.77;0.60;;;16.90;70.40;;;;;;5040770;28;20624;-83
2023/11/12 09:25:14;;;;;;;1.40;0.57;;;16.90;70.50;;;;;;5044839;28;20033;-83
2023/11/12 09:27:39;;;;;;;1.30;0.50;;;16.90;70.50;;;;;;5043875;28;20041;-83
2023/11/12 09:30:06;;;;;;;1.20;0.50;;;16.90;70.40;;;;;;5043141;28;20060;-83
2023/11/12 09:32:31;;;;;;;0.80;0.55;;;16.90;70.50;;;;;;5021023;28;20042;-83
2023/11/12 09:34:57;;;;;;;0.93;0.60;;;16.90;70.70;;;;;;5037562;28;20087;-83
2023/11/12 09:37:22;;;;;;;1.75;0.90;;;16.90;70.40;;;;;;5041030;28;20040;-84
2023/11/12 09:39:48;;;;;;;0.77;0.77;;;16.90;70.50;;;;;;5042958;28;20035;-84
2023/11/12 09:42:16;;;;;;;0.70;0.52;;;16.90;70.70;;;;;;5041063;28;20017;-84
2023/11/12 09:44:42;;;;;;;0.80;0.50;;;16.90;70.40;;;;;;5042479;28;20118;-84
2023/11/12 09:47:14;;;;;;;2.13;0.63;;;16.90;70.40;;;;;;5038872;28;20514;-85
2023/11/12 09:49:40;;;;;;;1.73;0.85;;;16.90;70.50;;;;;;5018081;28;20434;-83
2023/11/12 09:52:06;;;;;;;0.85;0.40;;;16.90;71.30;;;;;;5045190;28;20531;-83
2023/11/12 09:54:35;;;;;;;0.82;0.40;;;16.90;70.30;;;;;;5039803;28;20072;-86
2023/11/12 09:57:01;;;;;;;0.70;0.43;;;16.90;70.60;;;;;;5041959;28;20044;-84
2023/11/12 09:59:26;;;;;;;1.35;0.85;;;16.90;70.50;;;;;;5042394;28;20036;-84
2023/11/12 10:01:52;;;;;;;1.70;0.90;;;17.00;70.70;;;;;;5010729;28;20079;-86
2023/11/12 10:04:17;;;;;;;0.77;0.70;;;17.00;70.50;;;;;;5042178;28;20049;-84
2023/11/12 10:06:46;;;;;;;0.90;0.70;;;17.00;70.40;;;;;;5041818;28;20056;-85
2023/11/12 10:09:15;;;;;;;0.90;0.65;;;17.00;70.40;;;;;;5023999;28;20530;-83
2023/11/12 10:11:41;;;;;;;0.52;0.40;;;17.00;70.30;;;;;;5044218;28;20057;-83
2023/11/12 10:14:13;;;;;;;1.25;0.65;;;16.90;70.30;;;;;;5042347;28;20590;-83
2023/11/12 10:16:39;;;;;;;0.60;0.60;;;17.00;70.40;;;;;;5024403;28;20045;-83
2023/11/12 10:19:14;;;;;;;0.70;0.50;;;16.90;70.60;;;;;;5043001;28;20044;-84
2023/11/12 10:21:56;;;;;;;0.98;0.60;;;16.90;70.50;;;;;;5023451;28;20508;-84
2023/11/12 10:24:22;;;;;;;1.48;0.82;;;16.90;70.50;;;;;;5021709;28;20056;-83
2023/11/12 10:26:48;;;;;;;1.40;0.80;;;17.00;70.80;;;;;;5042884;28;20052;-84
2023/11/12 10:29:21;;;;;;;1.08;0.60;;;16.90;70.50;;;;;;5038632;28;20045;-83
2023/11/12 10:31:46;;;;;;;1.48;0.75;;;17.00;70.50;;;;;;5041393;28;20593;-83
2023/11/12 10:34:14;;;;;;;2.35;1.02;;;17.00;70.40;;;;;;5059203;28;20049;-82
2023/11/12 10:36:39;;;;;;;1.63;0.88;;;17.00;70.40;;;;;;5027420;28;20133;-82
2023/11/12 10:39:09;;;;;;;0.85;0.47;;;17.00;70.50;;;;;;5038280;28;20048;-83
2023/11/12 10:41:35;;;;;;;2.00;0.60;;;17.00;70.50;;;;;;5030382;28;20063;-84
2023/11/12 10:44:01;;;;;;;0.68;0.60;;;17.00;70.70;;;;;;5025614;28;20090;-83
2023/11/12 10:46:26;;;;;;;1.30;0.70;;;17.00;71.50;;;;;;5037061;28;20065;-85
2023/11/12 10:48:54;;;;;;;1.45;0.93;;;17.00;70.70;;;;;;5039609;28;20518;-80
2023/11/12 10:51:20;;;;;;;0.85;0.70;;;17.00;70.90;;;;;;5040425;28;20049;-83
2023/11/12 10:53:45;;;;;;;2.85;0.85;;;17.00;70.60;;;;;;5021563;28;20040;-83
2023/11/12 10:56:11;;;;;;;1.52;0.50;;;17.00;71.70;;;;;;5034800;28;20056;-83
2023/11/12 10:58:37;;;;;;;0.77;0.57;;;17.00;71.00;;;;;;5020442;28;20053;-84
2023/11/12 11:01:03;;;;;;;1.15;0.50;;;16.90;70.70;;;;;;5042912;28;20391;-84
2023/11/12 11:03:33;;;;;;;0.77;0.50;;;17.00;70.80;;;;;;5038104;28;20121;-84
2023/11/12 11:06:03;;;;;;;0.77;0.65;;;17.00;70.90;;;;;;5039044;28;20536;-84
2023/11/12 11:08:34;;;;;;;0.60;0.50;;;17.00;70.80;;;;;;5038309;28;20525;-82
2023/11/12 11:11:00;;;;;;;1.00;0.70;;;17.00;70.90;;;;;;5042642;28;20044;-82
2023/11/12 11:13:26;;;;;;;0.95;0.60;;;17.00;71.20;;;;;;5038001;28;20048;-82
2023/11/12 11:15:53;;;;;;;1.02;0.68;;;17.00;70.60;;;;;;5036048;28;20048;-83
2023/11/12 11:18:28;;;;;;;0.98;0.55;;;17.00;70.60;;;;;;5035585;28;20044;-82
2023/11/12 11:21:06;;;;;;;1.08;0.68;;;17.00;70.80;;;;;;5042784;28;20049;-83
2023/11/12 11:23:39;;;;;;;0.77;0.77;;;17.00;70.90;;;;;;5040011;28;20049;-81
2023/11/12 11:26:24;;;;;;;0.85;0.55;;;17.00;70.90;;;;;;5038699;28;20102;-82
2023/11/12 11:29:16;;;;;;;0.70;0.60;;;17.00;70.80;;;;;;5022726;28;20044;-83
2023/11/12 11:31:47;;;;;;;1.38;0.65;;;17.00;70.90;;;;;;5017556;28;20049;-81
2023/11/12 11:34:13;;;;;;;0.73;0.63;;;17.00;71.20;;;;;;5029547;28;21399;-82
2023/11/12 11:36:40;;;;;;;0.90;0.77;;;17.00;71.80;;;;;;5036431;28;20045;-81
2023/11/12 11:39:12;;;;;;;0.70;0.63;;;17.00;70.60;;;;;;5037772;28;20102;-81
2023/11/12 11:41:53;;;;;;;1.20;0.70;;;17.00;70.70;;;;;;5039149;28;20048;-81
2023/11/12 11:44:31;;;;;;;0.73;0.47;;;17.00;70.90;;;;;;5037100;28;20479;-81
2023/11/12 11:47:16;;;;;;;1.25;0.80;;;17.00;71.10;;;;;;5036290;28;20049;-82
2023/11/12 11:49:56;;;;;;;0.65;0.60;;;17.00;70.90;;;;;;5035939;28;20496;-82
2023/11/12 11:52:26;;;;;;;1.23;0.75;;;17.00;70.90;;;;;;5035099;28;20044;-81
2023/11/12 11:54:56;;;;;;;0.93;0.73;;;17.00;71.00;;;;;;5022044;28;20053;-81
2023/11/12 11:57:25;;;;;;;0.82;0.75;;;17.00;71.30;;;;;;5034879;28;20112;-82
2023/11/12 11:59:55;;;;;;;1.52;0.80;;;17.00;70.90;;;;;;5018780;28;20920;-81
2023/11/12 12:02:21;;;;;;;0.55;0.52;;;17.00;70.80;;;;;;5053110;28;20083;-81
2023/11/12 12:04:54;;;;;;;1.65;0.70;;;17.00;70.70;;;;;;5049575;28;20045;-81
2023/11/12 12:07:24;;;;;;;1.17;0.77;;;17.00;70.80;;;;;;5040991;28;20040;-81
2023/11/12 12:09:54;;;;;;;1.02;0.93;;;17.00;70.90;;;;;;5042007;28;20436;-80
2023/11/12 12:12:19;;;;;;;0.73;0.70;;;17.00;70.90;;;;;;5035303;28;20065;-79
2023/11/12 12:14:45;;;;;;;2.42;1.15;;;17.00;71.30;;;;;;5023995;28;20487;-79
2023/11/12 12:17:10;;;;;;;1.13;0.80;;;17.00;70.90;;;;;;5039548;28;20083;-79
2023/11/12 12:19:36;;;;;;;0.70;0.68;;;17.00;70.90;;;;;;5019269;28;20103;-80
2023/11/12 12:22:04;;;;;;;2.17;0.63;;;17.00;70.90;;;;;;5035403;28;20115;-80
2023/11/12 12:24:30;;;;;;;2.03;1.00;;;17.00;70.80;;;;;;5038362;28;20053;-79
2023/11/12 12:26:56;;;;;;;0.90;0.82;;;17.00;70.80;;;;;;5038889;28;20083;-79
2023/11/12 12:29:23;;;;;;;1.63;1.00;;;17.00;70.90;;;;;;5023192;28;20075;-79
2023/11/12 12:31:49;;;;;;;1.20;0.80;;;17.00;70.80;;;;;;5023817;28;20063;-80
2023/11/12 12:34:19;;;;;;;1.30;0.60;;;17.10;70.70;;;;;;5039921;28;20077;-80
2023/11/12 12:36:57;;;;;;;1.25;0.75;;;17.00;71.00;;;;;;5038791;28;20045;-80
2023/11/12 12:39:26;;;;;;;15.88;8.93;;;17.10;70.80;;;;;;5039355;28;20593;-79
2023/11/12 12:41:56;;;;;;;51.65;29.23;;;17.10;71.00;;;;;;5041356;28;20045;-81